createdAt,value
2018-08-03T00:00:51.313Z,61.81
2018-08-03T00:03:22.259Z,62.00
2018-08-03T00:05:52.692Z,62.64
2018-08-03T00:08:23.086Z,62.95
2018-08-03T00:10:53.470Z,63.34
2018-08-03T00:13:24.044Z,64.40
2018-08-03T00:15:54.456Z,64.00
2018-08-03T00:18:25.226Z,63.41
2018-08-03T00:20:56.075Z,63.73
2018-08-03T00:23:26.495Z,64.42
2018-08-03T00:25:57.027Z,64.87
2018-08-03T00:28:27.077Z,64.76
2018-08-03T00:30:57.793Z,65.38
2018-08-03T00:33:28.582Z,65.58
2018-08-03T00:35:59.385Z,65.36
2018-08-03T00:38:29.954Z,65.08
2018-08-03T00:41:00.408Z,65.36
2018-08-03T00:43:30.858Z,65.66
2018-08-03T00:46:01.607Z,65.04
2018-08-03T00:48:32.053Z,65.44
2018-08-03T00:51:02.437Z,65.52
2018-08-03T00:53:33.242Z,66.22
2018-08-03T00:56:04.199Z,66.28
2018-08-03T00:58:34.654Z,66.94
2018-08-03T01:01:05.274Z,67.01
2018-08-03T01:03:35.680Z,67.59
2018-08-03T01:06:06.232Z,68.08
2018-08-03T01:08:37.529Z,68.85
2018-08-03T01:11:08.018Z,68.74
2018-08-03T01:13:38.611Z,69.13
2018-08-03T01:16:08.977Z,69.20
2018-08-03T01:18:39.385Z,69.07
2018-08-03T01:21:10.202Z,68.71
2018-08-03T01:23:41.007Z,69.29
2018-08-03T01:26:11.559Z,69.36
2018-08-03T01:28:42.254Z,69.28
2018-08-03T01:31:12.722Z,69.04
2018-08-03T01:33:43.229Z,68.85
2018-08-03T01:36:13.692Z,68.38
2018-08-03T01:38:44.351Z,68.52
2018-08-03T01:41:14.830Z,69.01
2018-08-03T01:43:46.277Z,69.71
2018-08-03T01:46:17.159Z,70.18
2018-08-03T01:48:47.573Z,71.16
2018-08-03T02:02:06.153Z,71.85
2018-08-03T02:04:36.573Z,70.97
2018-08-03T02:07:07.009Z,71.82
2018-08-03T02:09:37.471Z,72.53
2018-08-03T02:12:07.953Z,73.38
2018-08-03T02:14:38.705Z,73.25
2018-08-03T02:17:09.251Z,73.67
2018-08-03T02:19:39.688Z,73.03
2018-08-03T02:22:10.444Z,72.97
2018-08-03T02:24:41.201Z,73.48
2018-08-03T02:27:11.824Z,73.93
2018-08-03T02:29:42.323Z,74.43
2018-08-03T02:32:12.779Z,74.34
2018-08-03T02:34:43.623Z,74.59
2018-08-03T02:37:14.091Z,74.71
2018-08-03T02:39:44.632Z,75.37
2018-08-03T02:42:15.099Z,75.73
2018-08-03T02:44:45.644Z,75.74
2018-08-03T02:47:16.067Z,75.55
2018-08-03T02:49:46.477Z,75.62
2018-08-03T02:56:34.939Z,75.68
2018-08-03T02:59:05.471Z,75.31
2018-08-03T03:01:36.251Z,75.82
2018-08-03T03:04:07.239Z,75.73
2018-08-03T03:10:14.294Z,76.97
2018-08-03T03:12:44.719Z,76.92
2018-08-03T03:15:15.285Z,77.51
2018-08-03T03:17:46.089Z,77.42
2018-08-03T03:20:16.555Z,78.13
2018-08-03T03:23:35.042Z,78.32
2018-08-03T03:26:05.447Z,77.90
2018-08-03T03:28:35.861Z,78.17
2018-08-03T03:31:06.322Z,78.05
2018-08-03T03:33:36.874Z,78.18
2018-08-03T03:36:07.437Z,77.77
2018-08-03T03:38:37.935Z,78.41
2018-08-03T03:41:08.371Z,78.64
2018-08-03T03:43:38.991Z,78.69
2018-08-03T03:46:09.911Z,78.95
2018-08-03T03:48:40.319Z,78.90
2018-08-03T03:51:10.746Z,78.88
2018-08-03T03:53:41.238Z,77.98
2018-08-03T03:56:12.758Z,78.62
2018-08-03T03:58:43.469Z,78.65
2018-08-03T04:01:14.247Z,78.00
2018-08-03T04:03:44.678Z,78.06
2018-08-03T04:06:15.227Z,77.83
2018-08-03T04:08:45.789Z,77.85
2018-08-03T04:11:16.278Z,78.18
2018-08-03T04:13:46.619Z,78.00
2018-08-03T04:16:17.105Z,77.74
2018-08-03T04:18:47.520Z,77.72
2018-08-03T04:21:18.385Z,77.68
2018-08-03T04:23:48.813Z,77.76
2018-08-03T04:26:19.271Z,77.59
2018-08-03T04:28:49.643Z,77.13
2018-08-03T04:31:20.781Z,77.00
2018-08-03T04:33:51.287Z,77.07
2018-08-03T04:36:22.019Z,76.76
2018-08-03T04:38:52.463Z,77.06
2018-08-03T04:41:23.096Z,76.70
2018-08-03T04:43:53.503Z,76.70
2018-08-03T04:46:24.083Z,77.24
2018-08-03T04:48:54.502Z,76.45
2018-08-03T04:51:24.981Z,77.16
2018-08-03T04:53:55.382Z,77.26
2018-08-03T04:56:25.786Z,77.28
2018-08-03T04:58:56.474Z,76.08
2018-08-03T05:01:26.876Z,74.51
2018-08-03T05:03:57.410Z,73.98
2018-08-03T05:06:27.873Z,73.04
2018-08-03T05:08:58.336Z,70.58
2018-08-03T05:11:29.086Z,68.43
2018-08-03T05:13:59.558Z,66.54
2018-08-03T05:16:29.918Z,63.89
2018-08-03T05:19:01.758Z,61.49
2018-08-03T05:21:32.404Z,61.24
2018-08-03T05:24:02.806Z,60.06
2018-08-03T05:26:33.451Z,58.48
2018-08-03T05:29:03.878Z,57.20
2018-08-03T05:31:34.293Z,56.95
2018-08-03T05:34:04.762Z,56.79
2018-08-03T05:36:35.188Z,56.78
2018-08-03T05:39:09.012Z,57.68
2018-08-03T05:41:40.056Z,58.57
2018-08-03T05:44:10.432Z,59.21
2018-08-03T05:46:41.285Z,58.97
2018-08-03T05:49:11.649Z,59.29
2018-08-03T05:51:42.388Z,60.20
2018-08-03T05:54:13.125Z,57.87
2018-08-03T05:56:43.571Z,56.48
2018-08-03T05:59:14.057Z,56.44
2018-08-03T06:01:44.437Z,55.35
2018-08-03T06:04:14.756Z,54.65
2018-08-03T06:06:45.153Z,55.08
2018-08-03T06:09:15.886Z,55.61
2018-08-03T06:11:47.325Z,57.05
2018-08-03T06:14:17.826Z,58.59
2018-08-03T06:16:48.261Z,59.13
2018-08-03T06:19:18.670Z,61.84
2018-08-03T06:21:49.146Z,64.39
2018-08-03T06:24:19.556Z,65.04
2018-08-03T06:26:50.601Z,65.06
2018-08-03T06:29:21.168Z,65.15
2018-08-03T06:31:51.629Z,64.69
2018-08-03T06:34:22.242Z,64.52
2018-08-03T06:36:52.766Z,64.23
2018-08-03T06:39:23.410Z,64.44
2018-08-03T06:41:54.296Z,64.50
2018-08-03T06:44:24.706Z,64.44
2018-08-03T06:46:55.292Z,63.48
2018-08-03T06:49:25.370Z,62.44
2018-08-03T06:51:55.884Z,62.21
2018-08-03T06:54:26.381Z,61.54
2018-08-03T06:56:56.862Z,61.66
2018-08-03T06:59:27.275Z,60.94
2018-08-03T07:01:57.984Z,60.41
2018-08-03T07:04:28.575Z,60.11
2018-08-03T07:06:59.167Z,60.84
2018-08-03T07:09:29.729Z,60.00
2018-08-03T07:12:00.191Z,60.08
2018-08-03T07:14:30.618Z,59.35
2018-08-03T07:17:01.338Z,59.49
2018-08-03T07:19:32.556Z,60.07
2018-08-03T07:22:03.455Z,60.50
2018-08-03T07:24:33.934Z,59.08
2018-08-03T07:27:04.399Z,58.95
2018-08-03T07:29:34.850Z,58.55
2018-08-03T07:32:05.696Z,58.46
2018-08-03T07:34:36.404Z,58.22
2018-08-03T07:37:07.001Z,58.09
2018-08-03T07:39:37.550Z,58.48
2018-08-03T07:42:08.094Z,57.99
2018-08-03T07:44:38.553Z,57.86
2018-08-03T07:47:10.338Z,57.62
2018-08-03T07:49:40.813Z,55.64
2018-08-03T07:55:47.426Z,57.20
2018-08-03T07:58:17.842Z,56.05
2018-08-03T08:00:48.244Z,56.25
2018-08-03T08:03:18.762Z,56.03
2018-08-03T08:05:49.344Z,55.51
2018-08-03T08:08:20.051Z,55.55
2018-08-03T08:10:50.562Z,55.34
2018-08-03T08:13:21.560Z,54.72
2018-08-03T08:15:52.299Z,54.89
2018-08-03T08:18:22.746Z,54.26
2018-08-03T08:20:53.096Z,53.66
2018-08-03T08:23:23.870Z,52.92
2018-08-03T08:25:55.160Z,53.86
2018-08-03T08:28:25.637Z,53.08
2018-08-03T08:31:37.285Z,53.05
2018-08-03T08:34:07.948Z,53.10
2018-08-03T08:36:38.686Z,53.25
2018-08-03T08:39:12.617Z,53.32
2018-08-03T08:41:43.841Z,52.46
2018-08-03T08:44:14.686Z,52.54
2018-08-03T08:46:45.103Z,52.17
2018-08-03T08:49:15.568Z,51.21
2018-08-03T08:51:46.489Z,50.94
2018-08-03T08:54:16.989Z,51.36
2018-08-03T08:56:47.691Z,50.65
2018-08-03T08:59:18.099Z,49.83
2018-08-03T09:01:48.499Z,49.23
2018-08-03T09:04:19.001Z,50.21
2018-08-03T09:06:49.713Z,49.35
2018-08-03T09:09:20.429Z,48.83
2018-08-03T09:11:51.763Z,49.24
2018-08-03T09:14:22.198Z,49.83
2018-08-03T09:16:52.598Z,49.79
2018-08-03T09:19:23.056Z,48.90
2018-08-03T09:21:53.706Z,48.02
2018-08-03T09:24:24.156Z,48.39
2018-08-03T09:26:54.710Z,47.22
2018-08-03T09:29:25.346Z,46.82
2018-08-03T09:31:55.751Z,47.18
2018-08-03T09:38:02.956Z,47.90
2018-08-03T09:40:33.372Z,47.12
2018-08-03T09:43:03.883Z,47.02
2018-08-03T09:45:34.490Z,46.63
2018-08-03T09:48:04.922Z,46.33
2018-08-03T09:50:35.674Z,46.68
2018-08-03T09:53:06.164Z,46.22
2018-08-03T09:55:36.628Z,46.16
2018-08-03T09:58:07.195Z,46.14
2018-08-03T10:04:14.030Z,44.78
2018-08-03T10:06:44.872Z,45.04
2018-08-03T10:09:15.888Z,44.57
2018-08-03T10:11:46.380Z,43.59
2018-08-03T10:14:16.894Z,44.18
2018-08-03T10:16:47.298Z,43.86
2018-08-03T10:19:17.939Z,43.04
2018-08-03T10:21:48.338Z,43.20
2018-08-03T10:24:18.979Z,43.32
2018-08-03T10:26:49.407Z,42.99
2018-08-03T10:29:20.038Z,41.97
2018-08-03T10:31:50.500Z,43.05
2018-08-03T10:34:20.688Z,43.67
2018-08-03T10:36:51.063Z,42.95
2018-08-03T10:39:21.243Z,41.46
2018-08-03T10:41:51.527Z,42.38
2018-08-03T10:44:21.694Z,41.96
2018-08-03T10:46:51.880Z,42.63
2018-08-03T10:49:22.092Z,41.35
2018-08-03T10:51:52.615Z,40.54
2018-08-03T10:54:23.124Z,41.06
2018-08-03T10:56:53.284Z,42.13
2018-08-03T10:59:23.449Z,40.55
2018-08-03T11:01:53.733Z,40.74
2018-08-03T11:04:23.958Z,40.25
2018-08-03T11:06:54.322Z,40.32
2018-08-03T11:09:24.659Z,40.36
2018-08-03T11:11:54.789Z,39.32
2018-08-03T11:14:25.074Z,39.29
2018-08-03T11:16:55.387Z,39.47
2018-08-03T11:19:25.544Z,38.05
2018-08-03T11:21:55.606Z,38.30
2018-08-03T11:24:25.728Z,37.82
2018-08-03T11:27:36.426Z,37.89
2018-08-03T11:30:08.667Z,37.72
2018-08-03T11:32:39.204Z,37.34
2018-08-03T11:35:10.368Z,37.90
2018-08-03T11:37:40.664Z,38.31
2018-08-03T11:40:10.842Z,37.37
2018-08-03T11:42:40.974Z,37.03
2018-08-03T11:45:11.904Z,37.71
2018-08-03T11:47:42.021Z,37.05
2018-08-03T11:50:12.195Z,36.58
2018-08-03T11:52:42.346Z,36.47
2018-08-03T11:55:12.506Z,36.56
2018-08-03T11:57:43.090Z,37.02
2018-08-03T12:00:13.738Z,36.65
2018-08-03T12:02:44.352Z,36.99
2018-08-03T12:05:14.444Z,34.53
2018-08-03T12:07:44.590Z,35.18
2018-08-03T12:10:14.794Z,35.26
2018-08-03T12:12:44.917Z,35.91
2018-08-03T12:18:50.601Z,36.43
2018-08-03T12:21:20.755Z,35.39
2018-08-03T12:23:50.948Z,35.67
2018-08-03T12:26:21.211Z,35.50
2018-08-03T12:28:51.354Z,35.97
2018-08-03T12:31:21.705Z,35.44
2018-08-03T12:33:51.830Z,35.42
2018-08-03T12:36:22.033Z,33.96
2018-08-03T12:38:52.135Z,34.32
2018-08-03T12:41:22.591Z,34.78
2018-08-03T12:44:34.815Z,34.73
2018-08-03T12:47:05.007Z,34.29
2018-08-03T12:49:35.796Z,35.10
2018-08-03T12:52:05.929Z,35.43
2018-08-03T12:54:36.495Z,33.56
2018-08-03T12:57:37.330Z,32.77
2018-08-03T13:00:08.229Z,32.54
2018-08-03T13:02:38.567Z,34.23
2018-08-03T13:05:09.580Z,33.07
2018-08-03T13:07:39.840Z,34.08
2018-08-03T13:13:46.235Z,33.87
2018-08-03T13:16:16.511Z,33.90
2018-08-03T13:18:46.644Z,33.79
2018-08-03T13:21:33.881Z,33.73
2018-08-03T13:24:04.673Z,32.69
2018-08-03T13:26:35.303Z,33.03
2018-08-03T13:29:05.639Z,32.96
2018-08-03T13:31:36.629Z,32.39
2018-08-03T13:34:07.020Z,32.31
2018-08-03T13:36:37.272Z,31.97
2018-08-03T13:39:09.458Z,31.85
2018-08-03T13:41:40.279Z,31.77
2018-08-03T13:44:10.667Z,32.56
2018-08-03T13:46:41.210Z,32.79
2018-08-03T13:49:11.671Z,31.82
2018-08-03T13:51:41.804Z,31.60
2018-08-03T13:54:11.900Z,31.41
2018-08-03T13:56:42.019Z,31.84
2018-08-03T13:59:12.380Z,31.76
2018-08-03T14:01:59.591Z,31.99
2018-08-03T14:04:29.862Z,32.79
2018-08-03T14:07:00.039Z,32.32
2018-08-03T14:09:30.395Z,32.68
2018-08-03T14:12:00.537Z,32.18
2018-08-03T14:14:31.103Z,31.56
2018-08-03T14:17:01.267Z,32.03
2018-08-03T14:19:31.449Z,31.46
2018-08-03T14:22:01.765Z,30.98
2018-08-03T14:24:32.279Z,31.49
2018-08-03T14:27:02.989Z,32.28
2018-08-03T14:29:33.345Z,30.99
2018-08-03T14:32:04.645Z,30.65
2018-08-03T14:34:35.188Z,30.97
2018-08-03T14:37:05.389Z,31.12
2018-08-03T14:39:36.208Z,30.90
2018-08-03T14:42:07.414Z,30.21
2018-08-03T14:44:38.903Z,30.62
2018-08-03T14:47:09.363Z,31.14
2018-08-03T14:49:40.023Z,31.48
2018-08-03T14:52:10.827Z,31.76
2018-08-03T14:54:41.435Z,31.08
2018-08-03T14:57:12.455Z,30.71
2018-08-03T14:59:42.963Z,30.16
2018-08-03T15:02:13.670Z,30.87
2018-08-03T15:04:44.216Z,30.60
2018-08-03T15:07:14.390Z,30.18
2018-08-03T15:09:44.508Z,31.09
2018-08-03T15:12:15.041Z,31.73
2018-08-03T15:14:45.161Z,31.71
2018-08-03T15:17:15.448Z,31.07
2018-08-03T15:19:45.609Z,31.06
2018-08-03T15:22:15.949Z,31.27
2018-08-03T15:24:46.079Z,31.45
2018-08-03T15:27:16.313Z,32.03
2018-08-03T15:29:46.461Z,32.87
2018-08-03T15:32:16.643Z,32.43
2018-08-03T15:34:46.801Z,32.13
2018-08-03T15:37:17.755Z,31.99
2018-08-03T15:39:48.004Z,32.66
2018-08-03T15:42:18.929Z,32.36
2018-08-03T15:44:49.097Z,32.06
2018-08-03T15:47:19.727Z,32.23
2018-08-03T15:49:50.091Z,32.31
2018-08-03T15:52:20.785Z,32.44
2018-08-03T15:54:50.883Z,32.66
2018-08-03T15:57:21.096Z,32.77
2018-08-03T15:59:51.280Z,32.86
2018-08-03T16:02:21.567Z,32.70
2018-08-03T16:04:51.653Z,32.33
2018-08-03T16:07:21.879Z,32.51
2018-08-03T16:09:52.024Z,32.36
2018-08-03T16:12:22.243Z,32.70
2018-08-03T16:14:52.489Z,32.39
2018-08-03T16:17:22.655Z,32.53
2018-08-03T16:19:52.781Z,32.40
2018-08-03T16:22:22.963Z,32.21
2018-08-03T16:24:53.105Z,32.60
2018-08-03T16:27:23.924Z,33.14
2018-08-03T16:29:54.844Z,32.99
2018-08-03T16:32:24.973Z,33.60
2018-08-03T16:34:55.531Z,33.52
2018-08-03T16:37:25.745Z,33.54
2018-08-03T16:39:56.075Z,33.48
2018-08-03T16:42:26.469Z,32.84
2018-08-03T16:44:56.695Z,33.49
2018-08-03T16:47:27.151Z,33.15
2018-08-03T16:49:57.301Z,33.24
2018-08-03T16:52:27.507Z,33.41
2018-08-03T16:54:57.832Z,33.53
2018-08-03T16:57:28.063Z,34.02
2018-08-03T16:59:58.340Z,33.44
2018-08-03T17:02:28.559Z,33.75
2018-08-03T17:04:58.732Z,33.74
2018-08-03T17:07:29.089Z,33.86
2018-08-03T17:09:59.225Z,33.76
2018-08-03T17:13:33.788Z,34.13
2018-08-03T17:16:03.943Z,34.84
2018-08-03T17:18:34.156Z,34.75
2018-08-03T17:21:04.478Z,34.57
2018-08-03T17:23:34.627Z,34.15
2018-08-03T17:26:04.887Z,34.50
2018-08-03T17:28:35.194Z,34.44
2018-08-03T17:31:05.376Z,34.24
2018-08-03T17:34:36.766Z,34.38
2018-08-03T17:37:07.289Z,34.91
2018-08-03T17:39:38.052Z,35.39
2018-08-03T17:42:08.577Z,35.16
2018-08-03T17:44:38.710Z,35.62
2018-08-03T17:50:45.318Z,35.58
2018-08-03T17:53:15.590Z,36.39
2018-08-03T17:55:45.662Z,35.76
2018-08-03T17:58:15.806Z,36.37
2018-08-03T18:00:46.000Z,36.56
2018-08-03T18:03:16.378Z,36.19
2018-08-03T18:05:46.512Z,36.80
2018-08-03T18:08:16.749Z,36.12
2018-08-03T18:10:46.890Z,36.42
2018-08-03T18:13:17.052Z,36.65
2018-08-03T18:15:47.670Z,37.35
2018-08-03T18:18:17.951Z,37.53
2018-08-03T18:20:48.186Z,37.35
2018-08-03T18:23:18.326Z,37.68
2018-08-03T18:25:48.522Z,37.73
2018-08-03T18:28:19.033Z,37.89
2018-08-03T18:30:49.362Z,38.59
2018-08-03T18:33:19.470Z,38.32
2018-08-03T18:35:49.702Z,38.80
2018-08-03T18:38:19.905Z,38.45
2018-08-03T18:40:50.204Z,38.56
2018-08-03T18:43:20.400Z,39.47
2018-08-03T18:45:50.552Z,38.95
2018-08-03T18:48:20.720Z,39.04
2018-08-03T18:50:51.044Z,39.42
2018-08-03T18:53:21.517Z,40.02
2018-08-03T18:55:51.758Z,39.73
2018-08-03T18:58:21.927Z,40.19
2018-08-03T19:00:52.184Z,41.27
2018-08-03T19:03:22.740Z,41.00
2018-08-03T19:06:35.278Z,40.97
2018-08-03T19:09:08.111Z,41.61
2018-08-03T19:11:38.361Z,42.07
2018-08-03T19:14:08.576Z,41.69
2018-08-03T19:16:38.984Z,42.29
2018-08-03T19:19:10.093Z,42.20
2018-08-03T19:21:40.770Z,42.63
2018-08-03T19:24:11.381Z,43.26
2018-08-03T19:26:41.953Z,43.16
2018-08-03T19:29:12.564Z,43.27
2018-08-03T19:31:43.140Z,43.33
2018-08-03T19:34:13.300Z,43.68
2018-08-03T19:36:43.946Z,44.25
2018-08-03T19:39:14.426Z,44.19
2018-08-03T19:41:45.125Z,44.80
2018-08-03T19:44:15.924Z,44.59
2018-08-03T19:46:46.580Z,45.57
2018-08-03T19:49:16.976Z,46.25
2018-08-03T19:51:47.714Z,45.93
2018-08-03T19:57:54.324Z,46.33
2018-08-03T20:00:24.485Z,45.89
2018-08-03T20:02:55.012Z,47.12
2018-08-03T20:05:26.437Z,46.05
2018-08-03T20:07:57.587Z,47.10
2018-08-03T20:14:38.314Z,47.07
2018-08-03T20:17:09.075Z,47.93
2018-08-03T20:19:39.780Z,47.54
2018-08-03T20:22:17.109Z,47.53
2018-08-03T20:24:48.049Z,48.09
2018-08-03T20:27:18.629Z,47.97
2018-08-03T20:29:49.129Z,48.09
2018-08-03T20:32:19.624Z,48.24
2018-08-03T20:34:51.204Z,48.11
2018-08-03T20:37:21.794Z,48.42
2018-08-03T20:39:52.942Z,48.55
2018-08-03T20:42:23.728Z,48.76
2018-08-03T20:44:54.265Z,49.06
2018-08-03T20:47:24.756Z,49.40
2018-08-03T20:49:55.249Z,49.05
2018-08-03T20:52:25.894Z,48.71
2018-08-03T20:54:56.383Z,49.17
2018-08-03T20:57:26.882Z,48.82
2018-08-03T20:59:57.423Z,49.27
2018-08-03T21:02:27.952Z,48.90
2018-08-03T21:04:58.717Z,48.98
2018-08-03T21:07:29.339Z,48.51
2018-08-03T21:09:59.911Z,49.22
2018-08-03T21:12:30.381Z,49.03
2018-08-03T21:15:01.255Z,49.66
2018-08-03T21:17:31.795Z,50.03
2018-08-03T21:20:02.391Z,50.10
2018-08-03T21:22:32.911Z,51.03
2018-08-03T21:25:03.453Z,51.06
2018-08-03T21:27:34.261Z,51.50
2018-08-03T21:30:05.617Z,51.91
2018-08-03T21:32:36.269Z,52.02
2018-08-03T21:35:07.163Z,52.17
2018-08-03T21:37:38.418Z,52.61
2018-08-03T21:40:09.303Z,52.47
2018-08-03T21:42:39.829Z,53.21
2018-08-03T21:45:10.383Z,54.24
2018-08-03T21:48:34.512Z,54.60
2018-08-03T21:51:05.365Z,54.12
2018-08-03T21:53:35.743Z,54.04
2018-08-03T21:56:06.407Z,54.31
2018-08-03T21:58:37.033Z,54.64
2018-08-03T22:01:12.385Z,54.69
2018-08-03T22:03:43.207Z,54.42
2018-08-03T22:06:13.637Z,55.24
2018-08-03T22:08:44.170Z,55.42
2018-08-03T22:11:14.983Z,55.05
2018-08-03T22:13:45.404Z,55.56
2018-08-03T22:16:16.187Z,54.55
2018-08-03T22:18:46.549Z,54.55
2018-08-03T22:21:17.533Z,55.01
2018-08-03T22:23:48.011Z,55.05
2018-08-03T22:26:18.707Z,55.32
2018-08-03T22:28:49.575Z,54.92
2018-08-03T22:31:20.390Z,55.99
2018-08-03T22:33:50.984Z,55.58
2018-08-03T22:36:21.489Z,55.93
2018-08-03T22:38:51.991Z,56.10
2018-08-03T22:41:22.485Z,56.25
2018-08-03T22:43:53.047Z,56.86
2018-08-03T22:46:25.271Z,55.78
2018-08-03T22:48:55.947Z,56.04
2018-08-03T22:51:27.047Z,56.28
2018-08-03T22:53:57.867Z,56.36
2018-08-03T22:56:28.302Z,56.65
2018-08-03T22:58:58.873Z,56.43
2018-08-03T23:01:29.355Z,56.97
2018-08-03T23:03:59.860Z,56.95
2018-08-03T23:06:30.350Z,57.12
2018-08-03T23:09:01.025Z,57.71
2018-08-03T23:11:31.570Z,57.67
2018-08-03T23:14:02.143Z,58.36
2018-08-03T23:16:32.736Z,58.57
2018-08-03T23:19:03.161Z,59.23
2018-08-03T23:21:33.607Z,59.03
2018-08-03T23:24:04.100Z,59.38
2018-08-03T23:26:34.625Z,59.78
2018-08-03T23:29:07.070Z,59.78
2018-08-03T23:31:38.058Z,59.58
2018-08-03T23:34:08.538Z,59.76
2018-08-03T23:36:39.031Z,59.64
2018-08-03T23:39:10.264Z,59.85
2018-08-03T23:41:40.847Z,59.70
2018-08-03T23:44:12.113Z,59.03
2018-08-03T23:46:42.555Z,58.71
2018-08-03T23:49:13.017Z,58.07
2018-08-03T23:51:43.515Z,58.41
2018-08-03T23:54:14.159Z,58.36
2018-08-03T23:56:44.591Z,59.05
2018-08-03T23:59:15.033Z,59.82
